sensor_id;sensor_type;location;lat;lon;timestamp;P1;durP1;ratioP1;P2;durP2;ratioP2
75050;SDS011;63628;47.656;11.310;2023-03-19T00:01:34;2.88;;;2.10;;
75050;SDS011;63628;47.656;11.310;2023-03-19T00:04:01;4.55;;;1.95;;
75050;SDS011;63628;47.656;11.310;2023-03-19T00:06:27;3.00;;;1.65;;
75050;SDS011;63628;47.656;11.310;2023-03-19T00:08:55;2.28;;;1.60;;
75050;SDS011;63628;47.656;11.310;2023-03-19T00:11:22;5.15;;;1.83;;
75050;SDS011;63628;47.656;11.310;2023-03-19T00:13:48;3.40;;;1.98;;
75050;SDS011;63628;47.656;11.310;2023-03-19T00:16:15;3.33;;;1.98;;
75050;SDS011;63628;47.656;11.310;2023-03-19T00:18:42;2.80;;;2.10;;
75050;SDS011;63628;47.656;11.310;2023-03-19T00:21:09;2.58;;;1.88;;
75050;SDS011;63628;47.656;11.310;2023-03-19T00:23:35;2.88;;;1.70;;
75050;SDS011;63628;47.656;11.310;2023-03-19T00:26:04;3.95;;;2.03;;
75050;SDS011;63628;47.656;11.310;2023-03-19T00:28:31;2.83;;;2.28;;
75050;SDS011;63628;47.656;11.310;2023-03-19T00:31:05;4.47;;;2.00;;
75050;SDS011;63628;47.656;11.310;2023-03-19T00:33:33;2.80;;;1.70;;
75050;SDS011;63628;47.656;11.310;2023-03-19T00:35:59;3.92;;;2.22;;
75050;SDS011;63628;47.656;11.310;2023-03-19T00:38:26;3.50;;;1.83;;
75050;SDS011;63628;47.656;11.310;2023-03-19T00:40:53;2.30;;;1.67;;
75050;SDS011;63628;47.656;11.310;2023-03-19T00:43:21;5.88;;;2.30;;
75050;SDS011;63628;47.656;11.310;2023-03-19T00:45:48;2.40;;;1.75;;
75050;SDS011;63628;47.656;11.310;2023-03-19T00:48:15;4.88;;;1.70;;
75050;SDS011;63628;47.656;11.310;2023-03-19T00:50:41;2.75;;;1.85;;
75050;SDS011;63628;47.656;11.310;2023-03-19T00:53:08;2.63;;;1.90;;
75050;SDS011;63628;47.656;11.310;2023-03-19T00:55:35;1.92;;;1.50;;
75050;SDS011;63628;47.656;11.310;2023-03-19T00:58:01;2.85;;;1.80;;
75050;SDS011;63628;47.656;11.310;2023-03-19T01:00:30;5.43;;;2.40;;
75050;SDS011;63628;47.656;11.310;2023-03-19T01:02:56;3.65;;;1.80;;
75050;SDS011;63628;47.656;11.310;2023-03-19T01:05:23;2.78;;;1.55;;
75050;SDS011;63628;47.656;11.310;2023-03-19T01:07:50;3.83;;;2.17;;
75050;SDS011;63628;47.656;11.310;2023-03-19T01:10:17;3.47;;;1.85;;
75050;SDS011;63628;47.656;11.310;2023-03-19T01:12:43;3.55;;;2.13;;
75050;SDS011;63628;47.656;11.310;2023-03-19T01:15:10;3.50;;;1.87;;
75050;SDS011;63628;47.656;11.310;2023-03-19T01:17:38;2.47;;;1.70;;
75050;SDS011;63628;47.656;11.310;2023-03-19T01:20:05;3.92;;;1.98;;
75050;SDS011;63628;47.656;11.310;2023-03-19T01:22:38;2.95;;;1.75;;
75050;SDS011;63628;47.656;11.310;2023-03-19T01:25:07;2.42;;;1.58;;
75050;SDS011;63628;47.656;11.310;2023-03-19T01:27:35;3.63;;;1.80;;
75050;SDS011;63628;47.656;11.310;2023-03-19T01:30:01;3.85;;;1.60;;
75050;SDS011;63628;47.656;11.310;2023-03-19T01:32:28;2.47;;;1.57;;
75050;SDS011;63628;47.656;11.310;2023-03-19T01:34:56;3.95;;;1.65;;
75050;SDS011;63628;47.656;11.310;2023-03-19T01:37:23;3.20;;;1.88;;
75050;SDS011;63628;47.656;11.310;2023-03-19T01:39:49;3.35;;;1.80;;
75050;SDS011;63628;47.656;11.310;2023-03-19T01:42:16;2.10;;;1.60;;
75050;SDS011;63628;47.656;11.310;2023-03-19T01:44:43;3.42;;;2.10;;
75050;SDS011;63628;47.656;11.310;2023-03-19T01:47:13;2.70;;;1.58;;
75050;SDS011;63628;47.656;11.310;2023-03-19T01:49:42;3.25;;;1.55;;
75050;SDS011;63628;47.656;11.310;2023-03-19T01:52:14;2.83;;;1.40;;
75050;SDS011;63628;47.656;11.310;2023-03-19T01:54:41;2.50;;;1.83;;
75050;SDS011;63628;47.656;11.310;2023-03-19T01:57:10;3.05;;;1.80;;
75050;SDS011;63628;47.656;11.310;2023-03-19T01:59:40;2.05;;;1.70;;
75050;SDS011;63628;47.656;11.310;2023-03-19T02:02:12;3.00;;;1.70;;
75050;SDS011;63628;47.656;11.310;2023-03-19T02:04:45;2.33;;;1.70;;
75050;SDS011;63628;47.656;11.310;2023-03-19T02:07:17;2.33;;;1.67;;
75050;SDS011;63628;47.656;11.310;2023-03-19T02:09:45;1.73;;;1.50;;
75050;SDS011;63628;47.656;11.310;2023-03-19T02:12:12;2.83;;;1.65;;
75050;SDS011;63628;47.656;11.310;2023-03-19T02:14:39;3.30;;;1.60;;
75050;SDS011;63628;47.656;11.310;2023-03-19T02:17:06;2.58;;;1.58;;
75050;SDS011;63628;47.656;11.310;2023-03-19T02:19:34;2.60;;;1.67;;
75050;SDS011;63628;47.656;11.310;2023-03-19T02:22:06;4.90;;;1.80;;
75050;SDS011;63628;47.656;11.310;2023-03-19T02:24:38;2.65;;;1.42;;
75050;SDS011;63628;47.656;11.310;2023-03-19T02:27:11;2.30;;;1.70;;
75050;SDS011;63628;47.656;11.310;2023-03-19T02:29:38;4.07;;;2.00;;
75050;SDS011;63628;47.656;11.310;2023-03-19T02:32:04;1.60;;;1.30;;
75050;SDS011;63628;47.656;11.310;2023-03-19T02:34:32;2.73;;;1.67;;
75050;SDS011;63628;47.656;11.310;2023-03-19T02:37:03;2.65;;;1.65;;
75050;SDS011;63628;47.656;11.310;2023-03-19T02:39:33;6.57;;;1.63;;
75050;SDS011;63628;47.656;11.310;2023-03-19T02:42:08;4.30;;;1.60;;
75050;SDS011;63628;47.656;11.310;2023-03-19T02:44:37;3.53;;;1.52;;
75050;SDS011;63628;47.656;11.310;2023-03-19T02:47:04;3.40;;;1.70;;
75050;SDS011;63628;47.656;11.310;2023-03-19T02:49:31;1.87;;;1.20;;
75050;SDS011;63628;47.656;11.310;2023-03-19T02:51:58;1.90;;;1.40;;
75050;SDS011;63628;47.656;11.310;2023-03-19T02:54:24;2.30;;;1.80;;
75050;SDS011;63628;47.656;11.310;2023-03-19T02:56:51;2.50;;;1.40;;
75050;SDS011;63628;47.656;11.310;2023-03-19T02:59:18;2.33;;;1.53;;
75050;SDS011;63628;47.656;11.310;2023-03-19T03:01:46;2.53;;;1.30;;
75050;SDS011;63628;47.656;11.310;2023-03-19T03:04:13;3.10;;;1.40;;
75050;SDS011;63628;47.656;11.310;2023-03-19T03:06:41;1.97;;;1.60;;
75050;SDS011;63628;47.656;11.310;2023-03-19T03:09:08;4.13;;;1.40;;
75050;SDS011;63628;47.656;11.310;2023-03-19T03:11:35;1.87;;;1.20;;
75050;SDS011;63628;47.656;11.310;2023-03-19T03:14:02;3.23;;;1.23;;
75050;SDS011;63628;47.656;11.310;2023-03-19T03:16:29;1.53;;;1.10;;
75050;SDS011;63628;47.656;11.310;2023-03-19T03:18:57;2.80;;;1.70;;
75050;SDS011;63628;47.656;11.310;2023-03-19T03:21:24;2.03;;;1.40;;
75050;SDS011;63628;47.656;11.310;2023-03-19T03:23:51;2.60;;;1.33;;
75050;SDS011;63628;47.656;11.310;2023-03-19T03:26:17;2.03;;;1.40;;
75050;SDS011;63628;47.656;11.310;2023-03-19T03:28:44;1.90;;;1.37;;
75050;SDS011;63628;47.656;11.310;2023-03-19T03:31:10;3.70;;;1.33;;
75050;SDS011;63628;47.656;11.310;2023-03-19T03:33:38;2.40;;;1.63;;
75050;SDS011;63628;47.656;11.310;2023-03-19T03:36:07;2.43;;;1.40;;
75050;SDS011;63628;47.656;11.310;2023-03-19T03:38:34;1.27;;;1.13;;
75050;SDS011;63628;47.656;11.310;2023-03-19T03:41:00;2.63;;;1.77;;
75050;SDS011;63628;47.656;11.310;2023-03-19T03:43:27;3.00;;;1.60;;
75050;SDS011;63628;47.656;11.310;2023-03-19T03:45:54;1.80;;;1.17;;
75050;SDS011;63628;47.656;11.310;2023-03-19T03:48:20;3.93;;;1.67;;
75050;SDS011;63628;47.656;11.310;2023-03-19T03:50:47;1.97;;;1.33;;
75050;SDS011;63628;47.656;11.310;2023-03-19T03:53:15;2.57;;;1.67;;
75050;SDS011;63628;47.656;11.310;2023-03-19T03:55:42;1.70;;;1.40;;
75050;SDS011;63628;47.656;11.310;2023-03-19T03:58:09;2.00;;;1.20;;
75050;SDS011;63628;47.656;11.310;2023-03-19T04:00:35;3.17;;;1.37;;
75050;SDS011;63628;47.656;11.310;2023-03-19T04:03:02;2.03;;;1.30;;
75050;SDS011;63628;47.656;11.310;2023-03-19T04:05:29;2.83;;;1.57;;
75050;SDS011;63628;47.656;11.310;2023-03-19T04:07:56;3.70;;;1.17;;
75050;SDS011;63628;47.656;11.310;2023-03-19T04:10:24;1.73;;;1.30;;
75050;SDS011;63628;47.656;11.310;2023-03-19T04:12:51;2.27;;;1.20;;
75050;SDS011;63628;47.656;11.310;2023-03-19T04:15:17;2.77;;;1.37;;
75050;SDS011;63628;47.656;11.310;2023-03-19T04:17:44;4.83;;;1.50;;
75050;SDS011;63628;47.656;11.310;2023-03-19T04:20:11;4.43;;;1.40;;
75050;SDS011;63628;47.656;11.310;2023-03-19T04:22:38;4.63;;;1.50;;
75050;SDS011;63628;47.656;11.310;2023-03-19T04:25:05;2.40;;;1.20;;
75050;SDS011;63628;47.656;11.310;2023-03-19T04:27:34;1.83;;;1.23;;
75050;SDS011;63628;47.656;11.310;2023-03-19T04:30:01;2.10;;;1.17;;
75050;SDS011;63628;47.656;11.310;2023-03-19T04:32:29;1.70;;;1.10;;
75050;SDS011;63628;47.656;11.310;2023-03-19T04:34:55;2.10;;;1.60;;
75050;SDS011;63628;47.656;11.310;2023-03-19T04:37:23;3.40;;;1.30;;
75050;SDS011;63628;47.656;11.310;2023-03-19T04:39:50;2.63;;;1.40;;
75050;SDS011;63628;47.656;11.310;2023-03-19T04:42:16;1.80;;;1.40;;
75050;SDS011;63628;47.656;11.310;2023-03-19T04:44:44;2.20;;;1.37;;
75050;SDS011;63628;47.656;11.310;2023-03-19T04:47:11;2.57;;;1.30;;
75050;SDS011;63628;47.656;11.310;2023-03-19T04:49:37;2.43;;;1.50;;
75050;SDS011;63628;47.656;11.310;2023-03-19T04:52:04;1.53;;;1.17;;
75050;SDS011;63628;47.656;11.310;2023-03-19T04:54:31;2.50;;;1.37;;
75050;SDS011;63628;47.656;11.310;2023-03-19T04:56:57;2.53;;;1.10;;
75050;SDS011;63628;47.656;11.310;2023-03-19T04:59:24;1.93;;;1.20;;
75050;SDS011;63628;47.656;11.310;2023-03-19T05:01:52;2.33;;;1.50;;
75050;SDS011;63628;47.656;11.310;2023-03-19T05:04:19;1.77;;;1.20;;
75050;SDS011;63628;47.656;11.310;2023-03-19T05:06:45;2.00;;;1.27;;
75050;SDS011;63628;47.656;11.310;2023-03-19T05:09:12;7.40;;;2.20;;
75050;SDS011;63628;47.656;11.310;2023-03-19T05:11:39;3.10;;;1.67;;
75050;SDS011;63628;47.656;11.310;2023-03-19T05:14:05;3.50;;;1.80;;
75050;SDS011;63628;47.656;11.310;2023-03-19T05:16:32;3.13;;;2.00;;
75050;SDS011;63628;47.656;11.310;2023-03-19T05:19:02;1.90;;;1.43;;
75050;SDS011;63628;47.656;11.310;2023-03-19T05:21:28;1.80;;;1.33;;
75050;SDS011;63628;47.656;11.310;2023-03-19T05:23:55;2.13;;;1.40;;
75050;SDS011;63628;47.656;11.310;2023-03-19T05:26:22;2.63;;;1.90;;
75050;SDS011;63628;47.656;11.310;2023-03-19T05:28:48;3.47;;;1.77;;
75050;SDS011;63628;47.656;11.310;2023-03-19T05:31:15;3.83;;;1.90;;
75050;SDS011;63628;47.656;11.310;2023-03-19T05:33:42;1.93;;;1.30;;
75050;SDS011;63628;47.656;11.310;2023-03-19T05:36:10;2.70;;;1.80;;
75050;SDS011;63628;47.656;11.310;2023-03-19T05:38:37;3.00;;;1.45;;
75050;SDS011;63628;47.656;11.310;2023-03-19T05:41:04;2.77;;;1.70;;
75050;SDS011;63628;47.656;11.310;2023-03-19T05:43:32;4.40;;;1.80;;
75050;SDS011;63628;47.656;11.310;2023-03-19T05:45:59;3.97;;;1.73;;
75050;SDS011;63628;47.656;11.310;2023-03-19T05:48:25;4.27;;;1.80;;
75050;SDS011;63628;47.656;11.310;2023-03-19T05:50:52;9.80;;;3.27;;
75050;SDS011;63628;47.656;11.310;2023-03-19T05:53:20;5.77;;;2.50;;
75050;SDS011;63628;47.656;11.310;2023-03-19T05:55:48;6.00;;;4.35;;
75050;SDS011;63628;47.656;11.310;2023-03-19T05:58:14;13.70;;;5.47;;
75050;SDS011;63628;47.656;11.310;2023-03-19T06:00:42;8.97;;;3.30;;
75050;SDS011;63628;47.656;11.310;2023-03-19T06:03:08;6.17;;;2.80;;
75050;SDS011;63628;47.656;11.310;2023-03-19T06:05:35;2.83;;;1.67;;
75050;SDS011;63628;47.656;11.310;2023-03-19T06:08:02;7.23;;;4.20;;
75050;SDS011;63628;47.656;11.310;2023-03-19T06:10:30;12.07;;;5.03;;
75050;SDS011;63628;47.656;11.310;2023-03-19T06:12:57;8.77;;;3.77;;
75050;SDS011;63628;47.656;11.310;2023-03-19T06:15:24;2.67;;;1.90;;
75050;SDS011;63628;47.656;11.310;2023-03-19T06:17:51;2.93;;;1.60;;
75050;SDS011;63628;47.656;11.310;2023-03-19T06:20:18;3.67;;;2.50;;
75050;SDS011;63628;47.656;11.310;2023-03-19T06:22:44;5.67;;;2.80;;
75050;SDS011;63628;47.656;11.310;2023-03-19T06:25:11;4.67;;;2.07;;
75050;SDS011;63628;47.656;11.310;2023-03-19T06:27:39;2.67;;;1.70;;
75050;SDS011;63628;47.656;11.310;2023-03-19T06:30:06;2.80;;;1.70;;
75050;SDS011;63628;47.656;11.310;2023-03-19T06:32:34;4.23;;;1.63;;
75050;SDS011;63628;47.656;11.310;2023-03-19T06:35:02;2.70;;;1.60;;
75050;SDS011;63628;47.656;11.310;2023-03-19T06:37:29;2.13;;;1.60;;
75050;SDS011;63628;47.656;11.310;2023-03-19T06:39:56;2.50;;;1.77;;
75050;SDS011;63628;47.656;11.310;2023-03-19T06:42:22;3.40;;;1.63;;
75050;SDS011;63628;47.656;11.310;2023-03-19T06:44:50;3.10;;;1.83;;
75050;SDS011;63628;47.656;11.310;2023-03-19T06:47:19;3.78;;;2.05;;
75050;SDS011;63628;47.656;11.310;2023-03-19T06:49:45;2.37;;;1.60;;
75050;SDS011;63628;47.656;11.310;2023-03-19T06:52:12;3.10;;;1.80;;
75050;SDS011;63628;47.656;11.310;2023-03-19T06:54:39;2.87;;;2.13;;
75050;SDS011;63628;47.656;11.310;2023-03-19T06:57:05;1.90;;;1.43;;
75050;SDS011;63628;47.656;11.310;2023-03-19T06:59:32;2.67;;;1.67;;
75050;SDS011;63628;47.656;11.310;2023-03-19T07:02:00;2.37;;;1.53;;
75050;SDS011;63628;47.656;11.310;2023-03-19T07:04:27;6.93;;;2.20;;
75050;SDS011;63628;47.656;11.310;2023-03-19T07:06:54;2.47;;;1.80;;
75050;SDS011;63628;47.656;11.310;2023-03-19T07:09:20;3.43;;;2.07;;
75050;SDS011;63628;47.656;11.310;2023-03-19T07:11:47;2.57;;;1.60;;
75050;SDS011;63628;47.656;11.310;2023-03-19T07:14:14;2.90;;;1.70;;
75050;SDS011;63628;47.656;11.310;2023-03-19T07:16:41;2.10;;;1.70;;
75050;SDS011;63628;47.656;11.310;2023-03-19T07:19:09;2.27;;;1.50;;
75050;SDS011;63628;47.656;11.310;2023-03-19T07:21:35;4.30;;;2.27;;
75050;SDS011;63628;47.656;11.310;2023-03-19T07:24:02;1.87;;;1.30;;
75050;SDS011;63628;47.656;11.310;2023-03-19T07:26:29;2.40;;;1.73;;
75050;SDS011;63628;47.656;11.310;2023-03-19T07:28:56;2.03;;;1.70;;
75050;SDS011;63628;47.656;11.310;2023-03-19T07:31:23;2.43;;;1.67;;
75050;SDS011;63628;47.656;11.310;2023-03-19T07:33:49;7.63;;;3.73;;
75050;SDS011;63628;47.656;11.310;2023-03-19T07:36:17;4.50;;;2.60;;
75050;SDS011;63628;47.656;11.310;2023-03-19T07:38:44;2.83;;;1.47;;
75050;SDS011;63628;47.656;11.310;2023-03-19T07:41:11;2.67;;;1.60;;
75050;SDS011;63628;47.656;11.310;2023-03-19T07:43:37;2.27;;;1.40;;
75050;SDS011;63628;47.656;11.310;2023-03-19T07:46:04;3.00;;;1.70;;
75050;SDS011;63628;47.656;11.310;2023-03-19T07:48:31;5.97;;;2.77;;
75050;SDS011;63628;47.656;11.310;2023-03-19T07:50:58;2.63;;;1.80;;
75050;SDS011;63628;47.656;11.310;2023-03-19T07:53:26;2.50;;;1.70;;
75050;SDS011;63628;47.656;11.310;2023-03-19T07:55:52;3.70;;;2.00;;
75050;SDS011;63628;47.656;11.310;2023-03-19T07:58:19;2.47;;;1.60;;
75050;SDS011;63628;47.656;11.310;2023-03-19T08:00:46;8.37;;;2.93;;
75050;SDS011;63628;47.656;11.310;2023-03-19T08:03:12;5.67;;;4.03;;
75050;SDS011;63628;47.656;11.310;2023-03-19T08:05:39;7.00;;;3.97;;
75050;SDS011;63628;47.656;11.310;2023-03-19T08:08:06;3.27;;;2.07;;
75050;SDS011;63628;47.656;11.310;2023-03-19T08:10:34;2.23;;;1.60;;
75050;SDS011;63628;47.656;11.310;2023-03-19T08:13:03;2.27;;;1.70;;
75050;SDS011;63628;47.656;11.310;2023-03-19T08:15:30;2.40;;;1.47;;
75050;SDS011;63628;47.656;11.310;2023-03-19T08:17:57;2.70;;;2.37;;
75050;SDS011;63628;47.656;11.310;2023-03-19T08:20:24;2.37;;;1.53;;
75050;SDS011;63628;47.656;11.310;2023-03-19T08:22:51;2.63;;;1.70;;
75050;SDS011;63628;47.656;11.310;2023-03-19T08:25:17;8.70;;;4.87;;
75050;SDS011;63628;47.656;11.310;2023-03-19T08:27:45;3.83;;;2.33;;
75050;SDS011;63628;47.656;11.310;2023-03-19T08:30:12;2.70;;;2.13;;
75050;SDS011;63628;47.656;11.310;2023-03-19T08:32:39;9.57;;;5.77;;
75050;SDS011;63628;47.656;11.310;2023-03-19T08:35:06;6.70;;;4.40;;
75050;SDS011;63628;47.656;11.310;2023-03-19T08:37:33;6.40;;;2.90;;
75050;SDS011;63628;47.656;11.310;2023-03-19T08:40:00;7.17;;;2.87;;
75050;SDS011;63628;47.656;11.310;2023-03-19T08:42:27;6.53;;;3.07;;
75050;SDS011;63628;47.656;11.310;2023-03-19T08:44:55;11.47;;;5.90;;
75050;SDS011;63628;47.656;11.310;2023-03-19T08:47:22;7.87;;;5.83;;
75050;SDS011;63628;47.656;11.310;2023-03-19T08:49:49;9.43;;;5.23;;
75050;SDS011;63628;47.656;11.310;2023-03-19T08:52:17;16.10;;;9.67;;
75050;SDS011;63628;47.656;11.310;2023-03-19T08:54:44;16.67;;;9.10;;
75050;SDS011;63628;47.656;11.310;2023-03-19T08:57:10;10.53;;;5.20;;
75050;SDS011;63628;47.656;11.310;2023-03-19T08:59:37;7.93;;;3.30;;
75050;SDS011;63628;47.656;11.310;2023-03-19T09:02:05;4.93;;;3.43;;
75050;SDS011;63628;47.656;11.310;2023-03-19T09:04:32;9.00;;;5.40;;
75050;SDS011;63628;47.656;11.310;2023-03-19T09:07:04;8.57;;;5.00;;
75050;SDS011;63628;47.656;11.310;2023-03-19T09:09:31;9.47;;;3.90;;
75050;SDS011;63628;47.656;11.310;2023-03-19T09:11:58;13.10;;;4.63;;
75050;SDS011;63628;47.656;11.310;2023-03-19T09:14:25;10.00;;;4.40;;
75050;SDS011;63628;47.656;11.310;2023-03-19T09:16:52;7.47;;;4.07;;
75050;SDS011;63628;47.656;11.310;2023-03-19T09:19:21;5.37;;;3.43;;
75050;SDS011;63628;47.656;11.310;2023-03-19T09:21:48;7.28;;;4.05;;
75050;SDS011;63628;47.656;11.310;2023-03-19T09:24:15;7.10;;;4.20;;
75050;SDS011;63628;47.656;11.310;2023-03-19T09:26:42;6.37;;;3.97;;
75050;SDS011;63628;47.656;11.310;2023-03-19T09:29:09;6.10;;;3.60;;
75050;SDS011;63628;47.656;11.310;2023-03-19T09:31:35;9.13;;;4.10;;
75050;SDS011;63628;47.656;11.310;2023-03-19T09:34:02;5.40;;;3.53;;
75050;SDS011;63628;47.656;11.310;2023-03-19T09:36:30;8.13;;;4.57;;
75050;SDS011;63628;47.656;11.310;2023-03-19T09:38:57;10.20;;;4.30;;
75050;SDS011;63628;47.656;11.310;2023-03-19T09:41:26;13.63;;;3.87;;
75050;SDS011;63628;47.656;11.310;2023-03-19T09:43:58;6.03;;;3.47;;
75050;SDS011;63628;47.656;11.310;2023-03-19T09:48:59;8.53;;;3.47;;
75050;SDS011;63628;47.656;11.310;2023-03-19T09:51:34;8.17;;;3.90;;
75050;SDS011;63628;47.656;11.310;2023-03-19T09:54:07;6.63;;;3.27;;
75050;SDS011;63628;47.656;11.310;2023-03-19T09:56:46;6.22;;;3.97;;
75050;SDS011;63628;47.656;11.310;2023-03-19T09:59:12;7.35;;;3.70;;
75050;SDS011;63628;47.656;11.310;2023-03-19T10:01:39;8.18;;;3.88;;
75050;SDS011;63628;47.656;11.310;2023-03-19T10:04:27;5.43;;;3.38;;
75050;SDS011;63628;47.656;11.310;2023-03-19T10:10:21;6.85;;;3.70;;
75050;SDS011;63628;47.656;11.310;2023-03-19T10:13:03;6.43;;;3.70;;
75050;SDS011;63628;47.656;11.310;2023-03-19T10:15:38;6.70;;;3.70;;
75050;SDS011;63628;47.656;11.310;2023-03-19T10:18:10;6.03;;;3.53;;
75050;SDS011;63628;47.656;11.310;2023-03-19T10:20:42;5.88;;;3.28;;
75050;SDS011;63628;47.656;11.310;2023-03-19T10:23:22;6.30;;;3.25;;
75050;SDS011;63628;47.656;11.310;2023-03-19T10:25:55;6.00;;;3.67;;
75050;SDS011;63628;47.656;11.310;2023-03-19T10:28:25;4.45;;;2.45;;
75050;SDS011;63628;47.656;11.310;2023-03-19T10:30:54;4.22;;;2.80;;
75050;SDS011;63628;47.656;11.310;2023-03-19T10:33:31;6.90;;;3.60;;
75050;SDS011;63628;47.656;11.310;2023-03-19T10:36:08;6.15;;;4.15;;
75050;SDS011;63628;47.656;11.310;2023-03-19T10:38:40;4.78;;;2.80;;
75050;SDS011;63628;47.656;11.310;2023-03-19T10:41:14;4.85;;;3.17;;
75050;SDS011;63628;47.656;11.310;2023-03-19T10:46:16;7.30;;;2.92;;
75050;SDS011;63628;47.656;11.310;2023-03-19T10:48:43;5.95;;;3.50;;
75050;SDS011;63628;47.656;11.310;2023-03-19T10:51:11;6.43;;;2.97;;
75050;SDS011;63628;47.656;11.310;2023-03-19T10:53:42;4.25;;;3.20;;
75050;SDS011;63628;47.656;11.310;2023-03-19T10:56:15;6.63;;;3.03;;
75050;SDS011;63628;47.656;11.310;2023-03-19T10:58:55;5.18;;;2.83;;
75050;SDS011;63628;47.656;11.310;2023-03-19T11:01:25;6.95;;;3.17;;
75050;SDS011;63628;47.656;11.310;2023-03-19T11:03:55;2.47;;;2.20;;
75050;SDS011;63628;47.656;11.310;2023-03-19T11:06:24;4.97;;;2.67;;
75050;SDS011;63628;47.656;11.310;2023-03-19T11:08:58;5.07;;;3.13;;
75050;SDS011;63628;47.656;11.310;2023-03-19T11:11:30;4.43;;;3.22;;
75050;SDS011;63628;47.656;11.310;2023-03-19T11:14:06;4.55;;;2.63;;
75050;SDS011;63628;47.656;11.310;2023-03-19T11:16:47;7.93;;;3.63;;
75050;SDS011;63628;47.656;11.310;2023-03-19T11:19:18;4.45;;;2.90;;
75050;SDS011;63628;47.656;11.310;2023-03-19T11:21:52;6.15;;;3.55;;
75050;SDS011;63628;47.656;11.310;2023-03-19T11:24:25;4.45;;;2.63;;
75050;SDS011;63628;47.656;11.310;2023-03-19T11:26:55;5.95;;;3.38;;
75050;SDS011;63628;47.656;11.310;2023-03-19T11:29:23;5.78;;;3.97;;
75050;SDS011;63628;47.656;11.310;2023-03-19T11:31:53;5.93;;;3.47;;
75050;SDS011;63628;47.656;11.310;2023-03-19T11:34:48;5.70;;;3.40;;
75050;SDS011;63628;47.656;11.310;2023-03-19T11:37:20;7.43;;;2.90;;
75050;SDS011;63628;47.656;11.310;2023-03-19T11:39:57;4.70;;;2.97;;
75050;SDS011;63628;47.656;11.310;2023-03-19T11:42:38;4.78;;;3.10;;
75050;SDS011;63628;47.656;11.310;2023-03-19T11:45:24;7.40;;;3.30;;
75050;SDS011;63628;47.656;11.310;2023-03-19T11:47:58;5.47;;;3.38;;
75050;SDS011;63628;47.656;11.310;2023-03-19T11:50:42;5.80;;;2.95;;
75050;SDS011;63628;47.656;11.310;2023-03-19T11:53:17;5.82;;;2.85;;
75050;SDS011;63628;47.656;11.310;2023-03-19T11:55:51;6.68;;;2.95;;
75050;SDS011;63628;47.656;11.310;2023-03-19T11:58:30;6.05;;;3.65;;
75050;SDS011;63628;47.656;11.310;2023-03-19T12:01:27;5.57;;;2.67;;
75050;SDS011;63628;47.656;11.310;2023-03-19T12:04:19;5.45;;;2.85;;
75050;SDS011;63628;47.656;11.310;2023-03-19T12:06:58;5.20;;;2.90;;
75050;SDS011;63628;47.656;11.310;2023-03-19T12:09:33;5.18;;;2.88;;
75050;SDS011;63628;47.656;11.310;2023-03-19T12:12:09;7.63;;;3.47;;
75050;SDS011;63628;47.656;11.310;2023-03-19T12:14:46;6.55;;;3.60;;
75050;SDS011;63628;47.656;11.310;2023-03-19T12:17:23;5.43;;;3.00;;
75050;SDS011;63628;47.656;11.310;2023-03-19T12:20:10;4.65;;;2.72;;
75050;SDS011;63628;47.656;11.310;2023-03-19T12:22:48;7.50;;;3.10;;
75050;SDS011;63628;47.656;11.310;2023-03-19T12:25:33;5.30;;;2.60;;
75050;SDS011;63628;47.656;11.310;2023-03-19T12:28:12;6.82;;;3.10;;
75050;SDS011;63628;47.656;11.310;2023-03-19T12:30:45;5.38;;;2.83;;
75050;SDS011;63628;47.656;11.310;2023-03-19T12:33:25;4.55;;;3.17;;
75050;SDS011;63628;47.656;11.310;2023-03-19T12:36:02;7.57;;;2.90;;
75050;SDS011;63628;47.656;11.310;2023-03-19T12:38:36;4.32;;;2.40;;
75050;SDS011;63628;47.656;11.310;2023-03-19T12:41:05;3.97;;;2.70;;
75050;SDS011;63628;47.656;11.310;2023-03-19T12:43:38;5.63;;;2.80;;
75050;SDS011;63628;47.656;11.310;2023-03-19T12:46:13;6.00;;;3.08;;
75050;SDS011;63628;47.656;11.310;2023-03-19T12:48:45;4.90;;;2.85;;
75050;SDS011;63628;47.656;11.310;2023-03-19T12:51:18;5.03;;;3.10;;
75050;SDS011;63628;47.656;11.310;2023-03-19T12:53:49;5.57;;;2.67;;
75050;SDS011;63628;47.656;11.310;2023-03-19T12:56:22;7.00;;;3.45;;
75050;SDS011;63628;47.656;11.310;2023-03-19T12:58:59;6.15;;;3.13;;
75050;SDS011;63628;47.656;11.310;2023-03-19T13:01:31;5.53;;;2.88;;
75050;SDS011;63628;47.656;11.310;2023-03-19T13:04:02;4.72;;;2.95;;
75050;SDS011;63628;47.656;11.310;2023-03-19T13:06:36;4.85;;;3.10;;
75050;SDS011;63628;47.656;11.310;2023-03-19T13:09:09;9.00;;;3.42;;
75050;SDS011;63628;47.656;11.310;2023-03-19T13:11:43;6.90;;;3.35;;
75050;SDS011;63628;47.656;11.310;2023-03-19T13:14:16;7.57;;;3.80;;
75050;SDS011;63628;47.656;11.310;2023-03-19T13:16:49;3.92;;;2.92;;
75050;SDS011;63628;47.656;11.310;2023-03-19T13:19:24;2.83;;;2.25;;
75050;SDS011;63628;47.656;11.310;2023-03-19T13:21:56;5.35;;;2.92;;
75050;SDS011;63628;47.656;11.310;2023-03-19T13:24:26;5.80;;;2.95;;
75050;SDS011;63628;47.656;11.310;2023-03-19T13:26:57;5.30;;;2.65;;
75050;SDS011;63628;47.656;11.310;2023-03-19T13:29:28;4.80;;;2.67;;
75050;SDS011;63628;47.656;11.310;2023-03-19T13:31:59;4.10;;;2.70;;
75050;SDS011;63628;47.656;11.310;2023-03-19T13:34:27;5.05;;;3.03;;
75050;SDS011;63628;47.656;11.310;2023-03-19T13:36:59;6.75;;;3.15;;
75050;SDS011;63628;47.656;11.310;2023-03-19T13:39:30;4.90;;;2.75;;
75050;SDS011;63628;47.656;11.310;2023-03-19T13:44:52;6.22;;;3.55;;
75050;SDS011;63628;47.656;11.310;2023-03-19T13:47:40;4.30;;;2.53;;
75050;SDS011;63628;47.656;11.310;2023-03-19T13:52:52;5.00;;;2.63;;
75050;SDS011;63628;47.656;11.310;2023-03-19T13:55:47;4.32;;;2.88;;
75050;SDS011;63628;47.656;11.310;2023-03-19T13:58:18;8.25;;;3.10;;
75050;SDS011;63628;47.656;11.310;2023-03-19T14:04:14;6.10;;;2.92;;
75050;SDS011;63628;47.656;11.310;2023-03-19T14:06:45;3.88;;;2.67;;
75050;SDS011;63628;47.656;11.310;2023-03-19T14:12:09;5.45;;;2.97;;
75050;SDS011;63628;47.656;11.310;2023-03-19T14:14:40;5.53;;;2.70;;
75050;SDS011;63628;47.656;11.310;2023-03-19T14:17:13;5.32;;;3.00;;
75050;SDS011;63628;47.656;11.310;2023-03-19T14:19:41;5.05;;;2.60;;
75050;SDS011;63628;47.656;11.310;2023-03-19T14:22:09;4.07;;;2.83;;
75050;SDS011;63628;47.656;11.310;2023-03-19T14:24:53;4.95;;;2.63;;
75050;SDS011;63628;47.656;11.310;2023-03-19T14:27:24;35.30;;;15.85;;
75050;SDS011;63628;47.656;11.310;2023-03-19T14:29:55;26.17;;;11.52;;
75050;SDS011;63628;47.656;11.310;2023-03-19T14:32:30;5.45;;;3.13;;
75050;SDS011;63628;47.656;11.310;2023-03-19T14:35:02;4.28;;;2.42;;
75050;SDS011;63628;47.656;11.310;2023-03-19T14:37:33;3.53;;;2.40;;
75050;SDS011;63628;47.656;11.310;2023-03-19T14:40:10;4.20;;;2.95;;
75050;SDS011;63628;47.656;11.310;2023-03-19T14:42:42;6.03;;;2.53;;
75050;SDS011;63628;47.656;11.310;2023-03-19T14:45:44;4.70;;;3.08;;
75050;SDS011;63628;47.656;11.310;2023-03-19T14:48:18;6.35;;;2.72;;
75050;SDS011;63628;47.656;11.310;2023-03-19T14:51:00;5.32;;;2.83;;
75050;SDS011;63628;47.656;11.310;2023-03-19T14:53:43;7.60;;;2.92;;
75050;SDS011;63628;47.656;11.310;2023-03-19T14:56:15;4.15;;;2.70;;
75050;SDS011;63628;47.656;11.310;2023-03-19T14:58:47;4.18;;;2.55;;
75050;SDS011;63628;47.656;11.310;2023-03-19T15:01:15;3.67;;;2.95;;
75050;SDS011;63628;47.656;11.310;2023-03-19T15:03:45;5.28;;;2.70;;
75050;SDS011;63628;47.656;11.310;2023-03-19T15:06:17;6.50;;;2.35;;
75050;SDS011;63628;47.656;11.310;2023-03-19T15:08:44;4.93;;;3.17;;